Terminal Aerodrome Forecast
Issued by NWS

Home | Current Version | Previous Version | Text Only | Print | Product List | Glossary Off
Versions: 1 2 3 4 5 6 7 8 9 10 11 12 13 14 15 16

000
FTUS43 KIWX 231100
TAFSBN
TAF
KSBN 231135Z 2312/2412 34015G20KT 6SM BR OVC015
      TEMPO 2312/2314 OVC008
     FM231500 35015G20KT P6SM BKN035
     FM240000 36010KT P6SM BKN045
     FM240900 02004KT P6SM SKC=

USA.gov is the U.S. government's official web portal to all federal, state and local government web resources and services.